sensor_id;sensor_type;location;lat;lon;timestamp;P1;durP1;ratioP1;P2;durP2;ratioP2
48993;SDS011;34804;49.214;12.276;2024-03-22T00:01:13;10.68;;;6.85;;
48993;SDS011;34804;49.214;12.276;2024-03-22T00:03:38;11.85;;;7.40;;
48993;SDS011;34804;49.214;12.276;2024-03-22T00:06:04;11.70;;;7.10;;
48993;SDS011;34804;49.214;12.276;2024-03-22T00:08:30;10.93;;;5.97;;
48993;SDS011;34804;49.214;12.276;2024-03-22T00:10:56;12.70;;;7.45;;
48993;SDS011;34804;49.214;12.276;2024-03-22T00:13:22;12.93;;;7.30;;
48993;SDS011;34804;49.214;12.276;2024-03-22T00:15:48;11.48;;;6.55;;
48993;SDS011;34804;49.214;12.276;2024-03-22T00:18:13;9.88;;;6.32;;
48993;SDS011;34804;49.214;12.276;2024-03-22T00:20:39;10.95;;;6.25;;
48993;SDS011;34804;49.214;12.276;2024-03-22T00:23:05;14.05;;;7.03;;
48993;SDS011;34804;49.214;12.276;2024-03-22T00:25:31;10.23;;;6.32;;
48993;SDS011;34804;49.214;12.276;2024-03-22T00:27:57;10.38;;;6.57;;
48993;SDS011;34804;49.214;12.276;2024-03-22T00:30:23;10.40;;;6.38;;
48993;SDS011;34804;49.214;12.276;2024-03-22T00:32:49;12.95;;;6.50;;
48993;SDS011;34804;49.214;12.276;2024-03-22T00:35:15;13.57;;;7.63;;
48993;SDS011;34804;49.214;12.276;2024-03-22T00:37:40;15.30;;;8.30;;
48993;SDS011;34804;49.214;12.276;2024-03-22T00:40:06;17.13;;;9.93;;
48993;SDS011;34804;49.214;12.276;2024-03-22T00:42:32;17.65;;;9.35;;
48993;SDS011;34804;49.214;12.276;2024-03-22T00:44:58;15.23;;;8.38;;
48993;SDS011;34804;49.214;12.276;2024-03-22T00:47:24;9.20;;;6.03;;
48993;SDS011;34804;49.214;12.276;2024-03-22T00:49:50;13.55;;;7.70;;
48993;SDS011;34804;49.214;12.276;2024-03-22T00:52:16;15.32;;;6.75;;
48993;SDS011;34804;49.214;12.276;2024-03-22T00:54:42;13.00;;;7.35;;
48993;SDS011;34804;49.214;12.276;2024-03-22T00:57:08;11.60;;;5.93;;
48993;SDS011;34804;49.214;12.276;2024-03-22T00:59:34;13.20;;;6.93;;
48993;SDS011;34804;49.214;12.276;2024-03-22T01:02:00;15.00;;;8.45;;
48993;SDS011;34804;49.214;12.276;2024-03-22T01:04:26;10.88;;;6.43;;
48993;SDS011;34804;49.214;12.276;2024-03-22T01:06:52;8.98;;;4.85;;
48993;SDS011;34804;49.214;12.276;2024-03-22T01:09:18;9.40;;;5.15;;
48993;SDS011;34804;49.214;12.276;2024-03-22T01:11:44;10.38;;;5.53;;
48993;SDS011;34804;49.214;12.276;2024-03-22T01:14:10;10.07;;;5.72;;
48993;SDS011;34804;49.214;12.276;2024-03-22T01:16:36;9.55;;;5.53;;
48993;SDS011;34804;49.214;12.276;2024-03-22T01:19:02;13.23;;;6.32;;
48993;SDS011;34804;49.214;12.276;2024-03-22T01:21:28;11.35;;;6.13;;
48993;SDS011;34804;49.214;12.276;2024-03-22T01:23:54;13.75;;;6.95;;
48993;SDS011;34804;49.214;12.276;2024-03-22T01:26:19;15.93;;;7.35;;
48993;SDS011;34804;49.214;12.276;2024-03-22T01:28:46;15.80;;;7.70;;
48993;SDS011;34804;49.214;12.276;2024-03-22T01:31:12;14.57;;;7.57;;
48993;SDS011;34804;49.214;12.276;2024-03-22T01:33:38;15.07;;;7.67;;
48993;SDS011;34804;49.214;12.276;2024-03-22T01:36:04;16.00;;;8.70;;
48993;SDS011;34804;49.214;12.276;2024-03-22T01:38:31;15.10;;;8.88;;
48993;SDS011;34804;49.214;12.276;2024-03-22T01:40:56;19.25;;;9.85;;
48993;SDS011;34804;49.214;12.276;2024-03-22T01:43:22;15.13;;;9.23;;
48993;SDS011;34804;49.214;12.276;2024-03-22T01:45:48;17.45;;;9.35;;
48993;SDS011;34804;49.214;12.276;2024-03-22T01:48:14;17.50;;;9.20;;
48993;SDS011;34804;49.214;12.276;2024-03-22T01:50:41;21.33;;;9.45;;
48993;SDS011;34804;49.214;12.276;2024-03-22T01:53:08;22.85;;;9.77;;
48993;SDS011;34804;49.214;12.276;2024-03-22T01:55:34;21.20;;;10.10;;
48993;SDS011;34804;49.214;12.276;2024-03-22T01:58:00;31.55;;;9.93;;
48993;SDS011;34804;49.214;12.276;2024-03-22T02:00:28;29.55;;;10.60;;
48993;SDS011;34804;49.214;12.276;2024-03-22T02:02:54;34.90;;;11.02;;
48993;SDS011;34804;49.214;12.276;2024-03-22T02:05:20;39.97;;;11.75;;
48993;SDS011;34804;49.214;12.276;2024-03-22T02:07:47;34.38;;;11.15;;
48993;SDS011;34804;49.214;12.276;2024-03-22T02:10:13;29.33;;;10.57;;
48993;SDS011;34804;49.214;12.276;2024-03-22T02:12:40;30.50;;;10.77;;
48993;SDS011;34804;49.214;12.276;2024-03-22T02:15:06;33.47;;;10.77;;
48993;SDS011;34804;49.214;12.276;2024-03-22T02:17:34;28.67;;;10.80;;
48993;SDS011;34804;49.214;12.276;2024-03-22T02:20:00;33.97;;;12.60;;
48993;SDS011;34804;49.214;12.276;2024-03-22T02:22:29;31.00;;;11.57;;
48993;SDS011;34804;49.214;12.276;2024-03-22T02:24:55;22.02;;;10.48;;
48993;SDS011;34804;49.214;12.276;2024-03-22T02:27:20;37.70;;;10.98;;
48993;SDS011;34804;49.214;12.276;2024-03-22T02:29:46;21.23;;;10.98;;
48993;SDS011;34804;49.214;12.276;2024-03-22T02:32:12;30.65;;;11.57;;
48993;SDS011;34804;49.214;12.276;2024-03-22T02:34:38;29.58;;;11.85;;
48993;SDS011;34804;49.214;12.276;2024-03-22T02:37:04;31.27;;;12.10;;
48993;SDS011;34804;49.214;12.276;2024-03-22T02:39:30;37.45;;;14.75;;
48993;SDS011;34804;49.214;12.276;2024-03-22T02:41:56;28.02;;;12.65;;
48993;SDS011;34804;49.214;12.276;2024-03-22T02:44:22;42.47;;;12.85;;
48993;SDS011;34804;49.214;12.276;2024-03-22T02:46:48;47.92;;;15.63;;
48993;SDS011;34804;49.214;12.276;2024-03-22T02:49:13;57.05;;;16.67;;
48993;SDS011;34804;49.214;12.276;2024-03-22T02:51:39;28.35;;;15.25;;
48993;SDS011;34804;49.214;12.276;2024-03-22T02:54:05;39.47;;;15.48;;
48993;SDS011;34804;49.214;12.276;2024-03-22T02:56:31;42.10;;;16.00;;
48993;SDS011;34804;49.214;12.276;2024-03-22T02:58:57;47.58;;;17.20;;
48993;SDS011;34804;49.214;12.276;2024-03-22T03:01:23;38.30;;;18.05;;
48993;SDS011;34804;49.214;12.276;2024-03-22T03:03:48;37.53;;;17.95;;
48993;SDS011;34804;49.214;12.276;2024-03-22T03:06:14;54.78;;;19.73;;
48993;SDS011;34804;49.214;12.276;2024-03-22T03:08:41;52.67;;;16.00;;
48993;SDS011;34804;49.214;12.276;2024-03-22T03:11:07;37.65;;;15.60;;
48993;SDS011;34804;49.214;12.276;2024-03-22T03:13:33;31.38;;;15.65;;
48993;SDS011;34804;49.214;12.276;2024-03-22T03:15:59;32.35;;;16.13;;
48993;SDS011;34804;49.214;12.276;2024-03-22T03:18:25;28.45;;;14.88;;
48993;SDS011;34804;49.214;12.276;2024-03-22T03:20:51;30.63;;;16.08;;
48993;SDS011;34804;49.214;12.276;2024-03-22T03:23:16;36.63;;;16.63;;
48993;SDS011;34804;49.214;12.276;2024-03-22T03:25:42;40.05;;;17.67;;
48993;SDS011;34804;49.214;12.276;2024-03-22T03:28:08;41.60;;;18.25;;
48993;SDS011;34804;49.214;12.276;2024-03-22T03:30:34;48.58;;;20.10;;
48993;SDS011;34804;49.214;12.276;2024-03-22T03:33:00;36.15;;;19.20;;
48993;SDS011;34804;49.214;12.276;2024-03-22T03:35:26;57.08;;;22.65;;
48993;SDS011;34804;49.214;12.276;2024-03-22T03:37:52;42.50;;;20.40;;
48993;SDS011;34804;49.214;12.276;2024-03-22T03:40:18;37.05;;;16.42;;
48993;SDS011;34804;49.214;12.276;2024-03-22T03:42:44;41.20;;;18.20;;
48993;SDS011;34804;49.214;12.276;2024-03-22T03:45:10;38.28;;;17.42;;
48993;SDS011;34804;49.214;12.276;2024-03-22T03:47:37;33.90;;;17.98;;
48993;SDS011;34804;49.214;12.276;2024-03-22T03:50:02;40.97;;;18.15;;
48993;SDS011;34804;49.214;12.276;2024-03-22T03:52:29;43.20;;;18.23;;
48993;SDS011;34804;49.214;12.276;2024-03-22T03:54:55;37.63;;;17.60;;
48993;SDS011;34804;49.214;12.276;2024-03-22T03:57:20;48.38;;;19.58;;
48993;SDS011;34804;49.214;12.276;2024-03-22T03:59:46;44.08;;;19.02;;
48993;SDS011;34804;49.214;12.276;2024-03-22T04:02:12;45.30;;;18.15;;
48993;SDS011;34804;49.214;12.276;2024-03-22T04:04:38;46.35;;;18.98;;
48993;SDS011;34804;49.214;12.276;2024-03-22T04:07:04;46.28;;;19.85;;
48993;SDS011;34804;49.214;12.276;2024-03-22T04:09:30;42.33;;;18.70;;
48993;SDS011;34804;49.214;12.276;2024-03-22T04:11:57;32.97;;;18.17;;
48993;SDS011;34804;49.214;12.276;2024-03-22T04:14:27;37.55;;;16.92;;
48993;SDS011;34804;49.214;12.276;2024-03-22T04:16:53;37.83;;;14.18;;
48993;SDS011;34804;49.214;12.276;2024-03-22T04:19:21;32.88;;;12.00;;
48993;SDS011;34804;49.214;12.276;2024-03-22T04:21:47;24.83;;;11.82;;
48993;SDS011;34804;49.214;12.276;2024-03-22T04:24:15;21.27;;;11.95;;
48993;SDS011;34804;49.214;12.276;2024-03-22T04:26:41;42.92;;;10.98;;
48993;SDS011;34804;49.214;12.276;2024-03-22T04:29:07;26.52;;;10.38;;
48993;SDS011;34804;49.214;12.276;2024-03-22T04:31:32;47.92;;;11.23;;
48993;SDS011;34804;49.214;12.276;2024-03-22T04:33:58;45.28;;;11.30;;
48993;SDS011;34804;49.214;12.276;2024-03-22T04:36:24;55.30;;;12.50;;
48993;SDS011;34804;49.214;12.276;2024-03-22T04:38:50;36.58;;;10.65;;
48993;SDS011;34804;49.214;12.276;2024-03-22T04:41:16;52.13;;;11.48;;
48993;SDS011;34804;49.214;12.276;2024-03-22T04:43:42;53.78;;;11.90;;
48993;SDS011;34804;49.214;12.276;2024-03-22T04:46:08;50.45;;;11.20;;
48993;SDS011;34804;49.214;12.276;2024-03-22T04:48:34;47.72;;;10.40;;
48993;SDS011;34804;49.214;12.276;2024-03-22T04:51:00;16.10;;;9.30;;
48993;SDS011;34804;49.214;12.276;2024-03-22T04:53:25;31.55;;;8.68;;
48993;SDS011;34804;49.214;12.276;2024-03-22T04:55:52;16.75;;;9.50;;
48993;SDS011;34804;49.214;12.276;2024-03-22T04:58:18;24.00;;;8.98;;
48993;SDS011;34804;49.214;12.276;2024-03-22T05:00:46;47.38;;;10.13;;
48993;SDS011;34804;49.214;12.276;2024-03-22T05:03:13;64.47;;;11.13;;
48993;SDS011;34804;49.214;12.276;2024-03-22T05:05:40;84.70;;;10.43;;
48993;SDS011;34804;49.214;12.276;2024-03-22T05:08:06;56.65;;;9.68;;
48993;SDS011;34804;49.214;12.276;2024-03-22T05:10:32;50.67;;;9.48;;
48993;SDS011;34804;49.214;12.276;2024-03-22T05:12:59;67.30;;;10.00;;
48993;SDS011;34804;49.214;12.276;2024-03-22T05:15:25;51.58;;;9.80;;
48993;SDS011;34804;49.214;12.276;2024-03-22T05:17:52;58.08;;;9.75;;
48993;SDS011;34804;49.214;12.276;2024-03-22T05:20:18;40.50;;;9.27;;
48993;SDS011;34804;49.214;12.276;2024-03-22T05:22:46;31.73;;;9.25;;
48993;SDS011;34804;49.214;12.276;2024-03-22T05:25:13;30.77;;;9.05;;
48993;SDS011;34804;49.214;12.276;2024-03-22T05:27:40;18.25;;;9.10;;
48993;SDS011;34804;49.214;12.276;2024-03-22T05:30:10;17.73;;;9.90;;
48993;SDS011;34804;49.214;12.276;2024-03-22T05:32:37;22.13;;;9.48;;
48993;SDS011;34804;49.214;12.276;2024-03-22T05:35:03;47.00;;;10.00;;
48993;SDS011;34804;49.214;12.276;2024-03-22T05:37:30;71.10;;;11.95;;
48993;SDS011;34804;49.214;12.276;2024-03-22T05:39:56;44.10;;;10.77;;
48993;SDS011;34804;49.214;12.276;2024-03-22T05:42:22;90.28;;;21.70;;
48993;SDS011;34804;49.214;12.276;2024-03-22T05:44:48;69.47;;;17.65;;
48993;SDS011;34804;49.214;12.276;2024-03-22T05:47:13;56.53;;;16.45;;
48993;SDS011;34804;49.214;12.276;2024-03-22T05:49:39;73.25;;;16.08;;
48993;SDS011;34804;49.214;12.276;2024-03-22T05:52:05;65.95;;;11.80;;
48993;SDS011;34804;49.214;12.276;2024-03-22T05:54:31;22.60;;;8.70;;
48993;SDS011;34804;49.214;12.276;2024-03-22T05:56:57;23.60;;;9.70;;
48993;SDS011;34804;49.214;12.276;2024-03-22T05:59:23;46.65;;;10.48;;
48993;SDS011;34804;49.214;12.276;2024-03-22T06:01:49;20.17;;;8.80;;
48993;SDS011;34804;49.214;12.276;2024-03-22T06:04:15;22.05;;;8.73;;
48993;SDS011;34804;49.214;12.276;2024-03-22T06:06:41;46.85;;;11.40;;
48993;SDS011;34804;49.214;12.276;2024-03-22T06:09:07;36.35;;;11.40;;
48993;SDS011;34804;49.214;12.276;2024-03-22T06:11:36;51.55;;;11.50;;
48993;SDS011;34804;49.214;12.276;2024-03-22T06:14:02;26.63;;;11.73;;
48993;SDS011;34804;49.214;12.276;2024-03-22T06:16:29;28.83;;;13.43;;
48993;SDS011;34804;49.214;12.276;2024-03-22T06:18:55;45.65;;;13.98;;
48993;SDS011;34804;49.214;12.276;2024-03-22T06:21:21;42.20;;;13.48;;
48993;SDS011;34804;49.214;12.276;2024-03-22T06:23:49;40.65;;;14.30;;
48993;SDS011;34804;49.214;12.276;2024-03-22T06:26:16;55.95;;;15.80;;
48993;SDS011;34804;49.214;12.276;2024-03-22T06:28:42;40.42;;;13.68;;
48993;SDS011;34804;49.214;12.276;2024-03-22T06:31:08;52.40;;;13.32;;
48993;SDS011;34804;49.214;12.276;2024-03-22T06:33:34;27.70;;;11.95;;
48993;SDS011;34804;49.214;12.276;2024-03-22T06:36:02;34.85;;;11.25;;
48993;SDS011;34804;49.214;12.276;2024-03-22T06:38:28;19.48;;;10.85;;
48993;SDS011;34804;49.214;12.276;2024-03-22T06:40:54;32.03;;;10.63;;
48993;SDS011;34804;49.214;12.276;2024-03-22T06:43:20;42.88;;;11.32;;
48993;SDS011;34804;49.214;12.276;2024-03-22T06:45:46;27.35;;;10.25;;
48993;SDS011;34804;49.214;12.276;2024-03-22T06:48:13;14.40;;;8.18;;
48993;SDS011;34804;49.214;12.276;2024-03-22T06:50:41;14.07;;;8.05;;
48993;SDS011;34804;49.214;12.276;2024-03-22T06:53:07;15.55;;;8.27;;
48993;SDS011;34804;49.214;12.276;2024-03-22T06:55:35;12.27;;;7.35;;
48993;SDS011;34804;49.214;12.276;2024-03-22T06:58:01;14.30;;;8.35;;
48993;SDS011;34804;49.214;12.276;2024-03-22T07:00:28;14.52;;;8.90;;
48993;SDS011;34804;49.214;12.276;2024-03-22T07:02:53;14.38;;;8.43;;
48993;SDS011;34804;49.214;12.276;2024-03-22T07:05:21;16.38;;;9.30;;
48993;SDS011;34804;49.214;12.276;2024-03-22T07:07:47;14.15;;;9.00;;
48993;SDS011;34804;49.214;12.276;2024-03-22T07:10:15;15.60;;;9.00;;
48993;SDS011;34804;49.214;12.276;2024-03-22T07:12:41;16.63;;;9.27;;
48993;SDS011;34804;49.214;12.276;2024-03-22T07:15:07;16.85;;;9.30;;
48993;SDS011;34804;49.214;12.276;2024-03-22T07:17:33;17.65;;;9.82;;
48993;SDS011;34804;49.214;12.276;2024-03-22T07:19:59;16.15;;;9.27;;
48993;SDS011;34804;49.214;12.276;2024-03-22T07:22:28;17.08;;;9.60;;
48993;SDS011;34804;49.214;12.276;2024-03-22T07:24:54;18.20;;;10.98;;
48993;SDS011;34804;49.214;12.276;2024-03-22T07:27:20;20.88;;;11.70;;
48993;SDS011;34804;49.214;12.276;2024-03-22T07:29:46;18.80;;;11.05;;
48993;SDS011;34804;49.214;12.276;2024-03-22T07:32:12;19.80;;;12.75;;
48993;SDS011;34804;49.214;12.276;2024-03-22T07:34:38;22.88;;;14.15;;
48993;SDS011;34804;49.214;12.276;2024-03-22T07:37:04;22.55;;;12.80;;
48993;SDS011;34804;49.214;12.276;2024-03-22T07:39:30;23.17;;;14.15;;
48993;SDS011;34804;49.214;12.276;2024-03-22T07:41:56;21.50;;;14.35;;
48993;SDS011;34804;49.214;12.276;2024-03-22T07:44:22;25.40;;;15.48;;
48993;SDS011;34804;49.214;12.276;2024-03-22T07:46:52;24.20;;;14.50;;
48993;SDS011;34804;49.214;12.276;2024-03-22T07:49:18;22.00;;;13.93;;
48993;SDS011;34804;49.214;12.276;2024-03-22T07:51:44;24.35;;;15.18;;
48993;SDS011;34804;49.214;12.276;2024-03-22T07:54:10;26.98;;;15.25;;
48993;SDS011;34804;49.214;12.276;2024-03-22T07:56:36;27.77;;;15.60;;
48993;SDS011;34804;49.214;12.276;2024-03-22T07:59:01;24.60;;;14.25;;
48993;SDS011;34804;49.214;12.276;2024-03-22T08:01:27;22.08;;;12.85;;
48993;SDS011;34804;49.214;12.276;2024-03-22T08:03:53;22.25;;;13.55;;
48993;SDS011;34804;49.214;12.276;2024-03-22T08:06:19;22.65;;;13.13;;
48993;SDS011;34804;49.214;12.276;2024-03-22T08:08:45;19.88;;;13.18;;
48993;SDS011;34804;49.214;12.276;2024-03-22T08:11:11;24.25;;;14.82;;
48993;SDS011;34804;49.214;12.276;2024-03-22T08:13:37;20.25;;;14.00;;
48993;SDS011;34804;49.214;12.276;2024-03-22T08:16:04;23.30;;;14.07;;
48993;SDS011;34804;49.214;12.276;2024-03-22T08:18:31;21.35;;;13.40;;
48993;SDS011;34804;49.214;12.276;2024-03-22T08:20:58;23.88;;;13.63;;
48993;SDS011;34804;49.214;12.276;2024-03-22T08:23:24;22.40;;;14.65;;
48993;SDS011;34804;49.214;12.276;2024-03-22T08:25:50;22.80;;;13.50;;
48993;SDS011;34804;49.214;12.276;2024-03-22T08:28:16;22.38;;;14.13;;
48993;SDS011;34804;49.214;12.276;2024-03-22T08:30:42;21.63;;;13.32;;
48993;SDS011;34804;49.214;12.276;2024-03-22T08:33:09;18.85;;;11.90;;
48993;SDS011;34804;49.214;12.276;2024-03-22T08:35:35;20.42;;;12.32;;
48993;SDS011;34804;49.214;12.276;2024-03-22T08:38:01;20.15;;;12.15;;
48993;SDS011;34804;49.214;12.276;2024-03-22T08:40:27;20.75;;;12.35;;
48993;SDS011;34804;49.214;12.276;2024-03-22T08:42:53;19.33;;;12.20;;
48993;SDS011;34804;49.214;12.276;2024-03-22T08:45:19;17.85;;;11.27;;
48993;SDS011;34804;49.214;12.276;2024-03-22T08:47:45;19.55;;;12.45;;
48993;SDS011;34804;49.214;12.276;2024-03-22T08:50:11;19.00;;;12.45;;
48993;SDS011;34804;49.214;12.276;2024-03-22T08:52:37;19.77;;;12.75;;
48993;SDS011;34804;49.214;12.276;2024-03-22T08:55:23;17.10;;;11.57;;
48993;SDS011;34804;49.214;12.276;2024-03-22T08:57:49;19.48;;;12.60;;
48993;SDS011;34804;49.214;12.276;2024-03-22T09:00:15;20.17;;;12.40;;
48993;SDS011;34804;49.214;12.276;2024-03-22T09:02:42;18.80;;;11.88;;
48993;SDS011;34804;49.214;12.276;2024-03-22T09:05:10;20.92;;;12.30;;
48993;SDS011;34804;49.214;12.276;2024-03-22T09:07:36;24.88;;;12.48;;
48993;SDS011;34804;49.214;12.276;2024-03-22T09:10:02;17.63;;;10.90;;
48993;SDS011;34804;49.214;12.276;2024-03-22T09:12:29;20.05;;;11.57;;
48993;SDS011;34804;49.214;12.276;2024-03-22T09:14:55;18.58;;;12.48;;
48993;SDS011;34804;49.214;12.276;2024-03-22T09:17:20;17.50;;;11.20;;
48993;SDS011;34804;49.214;12.276;2024-03-22T09:19:47;19.10;;;11.30;;
48993;SDS011;34804;49.214;12.276;2024-03-22T09:22:13;18.05;;;11.48;;
48993;SDS011;34804;49.214;12.276;2024-03-22T09:24:40;18.20;;;11.68;;
48993;SDS011;34804;49.214;12.276;2024-03-22T09:27:06;17.45;;;10.88;;
48993;SDS011;34804;49.214;12.276;2024-03-22T09:29:36;17.52;;;11.13;;
48993;SDS011;34804;49.214;12.276;2024-03-22T09:32:02;17.70;;;10.95;;
48993;SDS011;34804;49.214;12.276;2024-03-22T09:34:28;16.48;;;10.20;;
48993;SDS011;34804;49.214;12.276;2024-03-22T09:36:57;16.17;;;10.60;;
48993;SDS011;34804;49.214;12.276;2024-03-22T09:39:23;15.98;;;10.00;;
48993;SDS011;34804;49.214;12.276;2024-03-22T09:41:50;15.88;;;10.45;;
48993;SDS011;34804;49.214;12.276;2024-03-22T09:44:17;15.32;;;10.55;;
48993;SDS011;34804;49.214;12.276;2024-03-22T09:46:46;19.30;;;11.50;;
48993;SDS011;34804;49.214;12.276;2024-03-22T09:49:12;17.10;;;11.40;;
48993;SDS011;34804;49.214;12.276;2024-03-22T09:51:39;15.20;;;10.57;;
48993;SDS011;34804;49.214;12.276;2024-03-22T09:54:06;16.88;;;10.75;;
48993;SDS011;34804;49.214;12.276;2024-03-22T09:56:34;17.70;;;10.90;;
48993;SDS011;34804;49.214;12.276;2024-03-22T09:59:02;19.13;;;11.02;;
48993;SDS011;34804;49.214;12.276;2024-03-22T10:01:29;15.45;;;10.52;;
48993;SDS011;34804;49.214;12.276;2024-03-22T10:03:55;17.77;;;10.50;;
48993;SDS011;34804;49.214;12.276;2024-03-22T10:06:21;16.40;;;10.77;;
48993;SDS011;34804;49.214;12.276;2024-03-22T10:08:47;15.98;;;10.45;;
48993;SDS011;34804;49.214;12.276;2024-03-22T10:11:13;15.82;;;11.07;;
48993;SDS011;34804;49.214;12.276;2024-03-22T10:13:39;18.40;;;12.02;;
48993;SDS011;34804;49.214;12.276;2024-03-22T10:16:05;18.30;;;11.90;;
48993;SDS011;34804;49.214;12.276;2024-03-22T10:18:32;18.65;;;12.00;;
48993;SDS011;34804;49.214;12.276;2024-03-22T10:21:03;21.52;;;12.15;;
48993;SDS011;34804;49.214;12.276;2024-03-22T10:23:29;17.95;;;12.40;;
48993;SDS011;34804;49.214;12.276;2024-03-22T10:25:56;18.60;;;12.70;;
48993;SDS011;34804;49.214;12.276;2024-03-22T10:28:26;19.98;;;12.23;;
48993;SDS011;34804;49.214;12.276;2024-03-22T10:30:53;19.55;;;13.63;;
48993;SDS011;34804;49.214;12.276;2024-03-22T10:33:19;19.20;;;12.82;;
48993;SDS011;34804;49.214;12.276;2024-03-22T10:35:49;20.08;;;13.55;;
48993;SDS011;34804;49.214;12.276;2024-03-22T10:38:17;21.25;;;14.68;;
48993;SDS011;34804;49.214;12.276;2024-03-22T10:40:44;20.88;;;13.77;;
48993;SDS011;34804;49.214;12.276;2024-03-22T10:43:12;21.92;;;15.15;;
48993;SDS011;34804;49.214;12.276;2024-03-22T10:45:41;21.85;;;15.15;;
48993;SDS011;34804;49.214;12.276;2024-03-22T10:48:08;23.98;;;14.55;;
48993;SDS011;34804;49.214;12.276;2024-03-22T10:50:39;20.67;;;14.63;;
48993;SDS011;34804;49.214;12.276;2024-03-22T10:53:08;23.48;;;15.80;;
48993;SDS011;34804;49.214;12.276;2024-03-22T10:55:41;23.02;;;16.08;;
48993;SDS011;34804;49.214;12.276;2024-03-22T10:58:15;22.85;;;16.05;;
48993;SDS011;34804;49.214;12.276;2024-03-22T11:00:51;24.35;;;15.82;;
48993;SDS011;34804;49.214;12.276;2024-03-22T11:03:21;22.17;;;15.52;;
48993;SDS011;34804;49.214;12.276;2024-03-22T11:05:54;25.27;;;16.77;;
48993;SDS011;34804;49.214;12.276;2024-03-22T11:08:25;24.63;;;16.75;;
48993;SDS011;34804;49.214;12.276;2024-03-22T11:10:53;23.90;;;16.50;;
48993;SDS011;34804;49.214;12.276;2024-03-22T11:13:19;24.98;;;16.08;;
48993;SDS011;34804;49.214;12.276;2024-03-22T11:15:51;26.52;;;17.17;;
48993;SDS011;34804;49.214;12.276;2024-03-22T11:18:17;25.08;;;17.77;;
48993;SDS011;34804;49.214;12.276;2024-03-22T11:20:44;27.05;;;17.88;;
48993;SDS011;34804;49.214;12.276;2024-03-22T11:23:13;26.35;;;16.83;;
48993;SDS011;34804;49.214;12.276;2024-03-22T11:25:39;27.48;;;18.67;;
48993;SDS011;34804;49.214;12.276;2024-03-22T11:28:05;31.23;;;19.70;;
48993;SDS011;34804;49.214;12.276;2024-03-22T11:30:31;30.75;;;18.00;;
48993;SDS011;34804;49.214;12.276;2024-03-22T11:33:02;30.00;;;19.30;;
48993;SDS011;34804;49.214;12.276;2024-03-22T11:35:29;26.75;;;18.52;;
48993;SDS011;34804;49.214;12.276;2024-03-22T11:37:55;27.85;;;18.38;;
48993;SDS011;34804;49.214;12.276;2024-03-22T11:40:25;28.50;;;18.75;;
48993;SDS011;34804;49.214;12.276;2024-03-22T11:42:52;31.20;;;19.20;;
48993;SDS011;34804;49.214;12.276;2024-03-22T11:45:19;28.88;;;20.48;;
48993;SDS011;34804;49.214;12.276;2024-03-22T11:47:46;29.98;;;19.35;;
48993;SDS011;34804;49.214;12.276;2024-03-22T11:50:13;31.30;;;20.73;;
48993;SDS011;34804;49.214;12.276;2024-03-22T11:52:43;25.25;;;17.42;;
48993;SDS011;34804;49.214;12.276;2024-03-22T11:55:12;25.90;;;17.35;;
48993;SDS011;34804;49.214;12.276;2024-03-22T11:57:39;25.10;;;17.27;;
48993;SDS011;34804;49.214;12.276;2024-03-22T12:00:06;25.60;;;17.25;;
48993;SDS011;34804;49.214;12.276;2024-03-22T12:02:38;24.30;;;16.60;;
48993;SDS011;34804;49.214;12.276;2024-03-22T12:05:04;25.45;;;17.30;;
48993;SDS011;34804;49.214;12.276;2024-03-22T12:07:31;24.63;;;16.65;;
48993;SDS011;34804;49.214;12.276;2024-03-22T12:09:57;19.83;;;14.70;;
48993;SDS011;34804;49.214;12.276;2024-03-22T12:12:23;21.55;;;15.60;;
48993;SDS011;34804;49.214;12.276;2024-03-22T12:14:49;21.20;;;14.93;;
48993;SDS011;34804;49.214;12.276;2024-03-22T12:17:16;25.75;;;15.80;;
48993;SDS011;34804;49.214;12.276;2024-03-22T12:19:42;16.85;;;10.27;;
48993;SDS011;34804;49.214;12.276;2024-03-22T12:22:08;20.85;;;13.93;;
48993;SDS011;34804;49.214;12.276;2024-03-22T12:24:34;19.25;;;13.60;;
48993;SDS011;34804;49.214;12.276;2024-03-22T12:27:01;18.85;;;13.13;;
48993;SDS011;34804;49.214;12.276;2024-03-22T12:29:27;18.98;;;11.98;;
48993;SDS011;34804;49.214;12.276;2024-03-22T12:31:53;18.95;;;12.90;;
48993;SDS011;34804;49.214;12.276;2024-03-22T12:34:19;13.70;;;8.95;;
48993;SDS011;34804;49.214;12.276;2024-03-22T12:36:45;15.75;;;10.13;;
48993;SDS011;34804;49.214;12.276;2024-03-22T12:39:11;18.17;;;12.95;;
48993;SDS011;34804;49.214;12.276;2024-03-22T12:41:37;18.60;;;11.90;;
48993;SDS011;34804;49.214;12.276;2024-03-22T12:44:03;18.80;;;13.07;;
48993;SDS011;34804;49.214;12.276;2024-03-22T12:46:29;19.80;;;14.60;;
48993;SDS011;34804;49.214;12.276;2024-03-22T12:48:56;19.23;;;13.82;;
48993;SDS011;34804;49.214;12.276;2024-03-22T12:51:21;21.13;;;14.30;;
48993;SDS011;34804;49.214;12.276;2024-03-22T12:53:47;20.40;;;13.57;;
48993;SDS011;34804;49.214;12.276;2024-03-22T12:56:14;21.02;;;15.05;;
48993;SDS011;34804;49.214;12.276;2024-03-22T12:58:40;20.58;;;14.45;;
48993;SDS011;34804;49.214;12.276;2024-03-22T13:01:06;18.88;;;13.95;;
48993;SDS011;34804;49.214;12.276;2024-03-22T13:03:36;19.52;;;13.95;;
48993;SDS011;34804;49.214;12.276;2024-03-22T13:06:03;21.98;;;15.57;;
48993;SDS011;34804;49.214;12.276;2024-03-22T13:08:33;25.17;;;15.77;;
48993;SDS011;34804;49.214;12.276;2024-03-22T13:10:58;21.52;;;14.88;;
48993;SDS011;34804;49.214;12.276;2024-03-22T13:13:24;22.80;;;16.02;;
48993;SDS011;34804;49.214;12.276;2024-03-22T13:15:50;23.25;;;15.30;;
48993;SDS011;34804;49.214;12.276;2024-03-22T13:18:16;19.48;;;13.55;;
48993;SDS011;34804;49.214;12.276;2024-03-22T13:20:42;21.13;;;13.50;;
48993;SDS011;34804;49.214;12.276;2024-03-22T13:23:08;21.63;;;13.65;;
48993;SDS011;34804;49.214;12.276;2024-03-22T13:25:37;20.55;;;14.32;;
48993;SDS011;34804;49.214;12.276;2024-03-22T13:28:03;19.00;;;13.63;;
48993;SDS011;34804;49.214;12.276;2024-03-22T13:30:31;19.33;;;14.20;;
48993;SDS011;34804;49.214;12.276;2024-03-22T13:32:57;20.80;;;13.88;;
48993;SDS011;34804;49.214;12.276;2024-03-22T13:35:24;19.65;;;13.55;;
48993;SDS011;34804;49.214;12.276;2024-03-22T13:37:50;19.60;;;13.48;;
48993;SDS011;34804;49.214;12.276;2024-03-22T13:40:16;20.98;;;14.32;;
48993;SDS011;34804;49.214;12.276;2024-03-22T13:42:42;17.98;;;13.00;;
48993;SDS011;34804;49.214;12.276;2024-03-22T13:45:08;18.65;;;13.40;;
48993;SDS011;34804;49.214;12.276;2024-03-22T13:47:34;18.67;;;13.52;;
48993;SDS011;34804;49.214;12.276;2024-03-22T13:50:03;20.52;;;13.25;;
48993;SDS011;34804;49.214;12.276;2024-03-22T13:52:30;19.85;;;13.38;;
48993;SDS011;34804;49.214;12.276;2024-03-22T13:54:56;17.42;;;12.98;;
48993;SDS011;34804;49.214;12.276;2024-03-22T13:57:22;17.95;;;12.70;;
48993;SDS011;34804;49.214;12.276;2024-03-22T13:59:50;18.23;;;12.48;;
48993;SDS011;34804;49.214;12.276;2024-03-22T14:02:16;16.92;;;11.98;;
48993;SDS011;34804;49.214;12.276;2024-03-22T14:04:42;18.35;;;12.05;;
48993;SDS011;34804;49.214;12.276;2024-03-22T14:07:08;17.08;;;11.40;;